Cooperville, Idaho
Current Conditions -  °F | °C
As of 9:55 PM on Thursday 27 Nov 2014 (Local Time) from KGIC Reporting Station
Clear Clear  
Wind Chill: 52°   Ceiling: Unl
Heat Index: 52°   Visibility: 10mi
Dew Point: 36°   Wind: 20mph
Humidity: 54%   Direction: 200°SSW
Pressure: 29.87"   Gusts: 29mph
Location:  45.7487°N, 116.14°W
Report Text: KGIC 280555Z AUTO 20017G25KT 10SM CLR 11/02 A2987 RMK AO1 T01090020 10163 21002
Loading
Personal Weather Stations






























Interactive Weather Map New forecast layout! Learn more

10-Day Weather Forecast

Advertisements
Track Severe Weather on mobile